createdAt,value
2022-09-24T00:01:42.906Z,9.00
2022-09-24T00:04:12.869Z,9.00
2022-09-24T00:06:44.187Z,9.00
2022-09-24T00:09:13.390Z,9.00
2022-09-24T00:11:43.967Z,8.90
2022-09-24T00:14:12.111Z,8.80
2022-09-24T00:16:42.579Z,8.70
2022-09-24T00:19:11.693Z,8.60
2022-09-24T00:21:41.075Z,8.60
2022-09-24T00:24:10.766Z,8.60
2022-09-24T00:26:49.571Z,8.50
2022-09-24T00:29:21.199Z,8.40
2022-09-24T00:31:50.254Z,8.30
2022-09-24T00:34:18.635Z,8.30
2022-09-24T00:36:47.606Z,8.40
2022-09-24T00:39:16.274Z,8.50
2022-09-24T00:41:49.102Z,8.50
2022-09-24T00:44:59.814Z,8.50
2022-09-24T00:47:32.765Z,8.50
2022-09-24T00:50:15.781Z,8.50
2022-09-24T00:52:50.250Z,8.50
2022-09-24T00:55:21.002Z,8.40
2022-09-24T00:57:52.146Z,8.30
2022-09-24T01:00:21.943Z,8.20
2022-09-24T01:02:55.981Z,8.10
2022-09-24T01:05:25.245Z,8.10
2022-09-24T01:07:53.234Z,8.00
2022-09-24T01:10:48.850Z,8.00
2022-09-24T01:13:30.831Z,7.90
2022-09-24T01:16:03.612Z,7.90
2022-09-24T01:18:41.881Z,8.00
2022-09-24T01:21:28.650Z,8.10
2022-09-24T01:24:31.396Z,8.20
2022-09-24T01:27:05.173Z,8.30
2022-09-24T01:29:47.081Z,8.40
2022-09-24T01:32:20.216Z,8.40
2022-09-24T01:34:51.644Z,8.30
2022-09-24T01:37:23.238Z,8.30
2022-09-24T01:39:54.708Z,8.40
2022-09-24T01:42:23.525Z,8.40
2022-09-24T01:44:53.150Z,8.50
2022-09-24T01:47:29.935Z,8.50
2022-09-24T01:50:03.110Z,8.50
2022-09-24T01:52:36.375Z,8.50
2022-09-24T01:55:09.178Z,8.50
2022-09-24T01:57:43.046Z,8.40
2022-09-24T02:00:16.421Z,8.30
2022-09-24T02:02:49.002Z,8.30
2022-09-24T02:05:24.144Z,8.20
2022-09-24T02:07:59.521Z,8.20
2022-09-24T02:10:33.526Z,8.20
2022-09-24T02:13:06.809Z,8.30
2022-09-24T02:15:40.006Z,8.10
2022-09-24T02:18:10.262Z,8.20
2022-09-24T02:20:41.057Z,8.00
2022-09-24T02:23:11.876Z,8.10
2022-09-24T02:25:43.785Z,8.10
2022-09-24T02:28:12.103Z,8.20
2022-09-24T02:30:47.002Z,8.30
2022-09-24T02:33:34.322Z,8.30
2022-09-24T02:36:03.644Z,8.30
2022-09-24T02:38:31.516Z,8.30
2022-09-24T02:41:00.135Z,8.40
2022-09-24T02:43:28.394Z,8.40
2022-09-24T02:45:58.323Z,8.40
2022-09-24T02:48:26.874Z,8.30
2022-09-24T02:50:55.552Z,8.30
2022-09-24T02:53:24.359Z,8.40
2022-09-24T02:55:52.995Z,8.40
2022-09-24T02:58:21.558Z,8.50
2022-09-24T03:00:50.003Z,8.50
2022-09-24T03:03:19.827Z,8.50
2022-09-24T03:05:48.014Z,8.50
2022-09-24T03:08:16.350Z,8.50
2022-09-24T03:10:45.141Z,8.50
2022-09-24T03:13:13.584Z,8.40
2022-09-24T03:15:41.735Z,8.40
2022-09-24T03:18:10.060Z,8.50
2022-09-24T03:20:40.179Z,8.30
2022-09-24T03:23:08.864Z,8.30
2022-09-24T03:25:37.790Z,8.30
2022-09-24T03:28:06.474Z,8.30
2022-09-24T03:30:52.467Z,8.30
2022-09-24T03:33:20.623Z,8.40
2022-09-24T03:35:50.705Z,8.50
2022-09-24T03:38:19.430Z,8.40
2022-09-24T03:40:47.926Z,8.40
2022-09-24T03:43:16.484Z,8.40
2022-09-24T03:45:44.999Z,8.40
2022-09-24T03:48:14.975Z,8.40
2022-09-24T03:50:43.843Z,8.40
2022-09-24T03:53:14.525Z,8.40
2022-09-24T03:55:47.060Z,8.30
2022-09-24T03:58:16.734Z,8.30
2022-09-24T04:00:45.027Z,8.30
2022-09-24T04:03:14.447Z,8.30
2022-09-24T04:05:44.078Z,8.40
2022-09-24T04:08:14.051Z,8.40
2022-09-24T04:10:42.583Z,8.50
2022-09-24T04:13:10.968Z,8.50
2022-09-24T04:15:39.328Z,8.50
2022-09-24T04:18:07.951Z,8.50
2022-09-24T04:20:37.538Z,8.50
2022-09-24T04:23:06.534Z,8.60
2022-09-24T04:25:36.929Z,8.50
2022-09-24T04:28:07.865Z,8.50
2022-09-24T04:30:38.388Z,8.60
2022-09-24T04:33:08.095Z,8.60
2022-09-24T04:35:38.105Z,8.50
2022-09-24T04:38:08.243Z,8.50
2022-09-24T04:40:40.443Z,8.40
2022-09-24T04:43:09.045Z,8.40
2022-09-24T04:45:39.917Z,8.30
2022-09-24T04:48:08.946Z,8.30
2022-09-24T04:50:37.700Z,8.30
2022-09-24T04:53:08.375Z,8.20
2022-09-24T04:55:38.928Z,8.20
2022-09-24T04:58:07.388Z,8.20
2022-09-24T05:00:35.903Z,8.30
2022-09-24T05:03:04.763Z,8.30
2022-09-24T05:05:33.572Z,8.30
2022-09-24T05:08:02.434Z,8.40
2022-09-24T05:10:33.257Z,8.40
2022-09-24T05:13:03.346Z,8.40
2022-09-24T05:15:31.957Z,8.40
2022-09-24T05:18:00.107Z,8.40
2022-09-24T05:20:28.577Z,8.40
2022-09-24T05:22:57.249Z,8.30
2022-09-24T05:25:25.802Z,8.30
2022-09-24T05:27:54.870Z,8.20
2022-09-24T05:30:26.161Z,8.10
2022-09-24T05:32:54.361Z,8.10
2022-09-24T05:35:24.582Z,8.00
2022-09-24T05:37:53.819Z,8.10
2022-09-24T05:40:40.784Z,8.00
2022-09-24T05:43:09.438Z,8.30
2022-09-24T05:45:39.098Z,8.70
2022-09-24T05:48:07.099Z,9.00
2022-09-24T05:50:35.520Z,9.30
2022-09-24T05:53:04.140Z,9.30
2022-09-24T05:55:32.853Z,9.20
2022-09-24T05:58:05.653Z,9.00
2022-09-24T06:00:35.351Z,8.90
2022-09-24T06:03:08.295Z,8.70
2022-09-24T06:05:36.628Z,8.70
2022-09-24T06:08:05.460Z,8.70
2022-09-24T06:10:34.024Z,8.70
2022-09-24T06:13:02.066Z,8.70
2022-09-24T06:15:31.249Z,8.70
2022-09-24T06:17:59.535Z,8.70
2022-09-24T06:20:29.348Z,8.80
2022-09-24T06:22:58.891Z,9.20
2022-09-24T06:25:27.918Z,9.80
2022-09-24T06:28:01.009Z,10.20
2022-09-24T06:30:30.883Z,10.30
2022-09-24T06:33:05.528Z,10.30
2022-09-24T06:35:37.142Z,10.20
2022-09-24T06:38:05.162Z,10.10
2022-09-24T06:40:36.979Z,9.90
2022-09-24T06:43:05.644Z,10.00
2022-09-24T06:45:34.100Z,10.30
2022-09-24T06:48:03.848Z,10.50
2022-09-24T06:50:34.348Z,11.00
2022-09-24T06:53:06.465Z,11.50
2022-09-24T06:55:35.122Z,11.60
2022-09-24T06:58:04.925Z,11.50
2022-09-24T07:00:32.977Z,11.60
2022-09-24T07:03:00.944Z,12.00
2022-09-24T07:05:28.874Z,12.50
2022-09-24T07:07:56.798Z,12.90
2022-09-24T07:10:27.983Z,13.40
2022-09-24T07:12:56.206Z,13.90
2022-09-24T07:15:24.136Z,14.10
2022-09-24T07:17:56.475Z,14.30
2022-09-24T07:20:24.765Z,14.60
2022-09-24T07:22:52.722Z,14.80
2022-09-24T07:25:20.704Z,15.10
2022-09-24T07:27:50.244Z,15.30
2022-09-24T07:30:18.587Z,15.60
2022-09-24T07:32:46.587Z,15.90
2022-09-24T07:35:14.696Z,16.20
2022-09-24T07:37:42.636Z,16.50
2022-09-24T07:40:11.949Z,16.90
2022-09-24T07:42:49.467Z,17.10
2022-09-24T07:45:18.213Z,17.30
2022-09-24T07:47:46.315Z,17.50
2022-09-24T07:50:14.624Z,17.60
2022-09-24T07:52:42.462Z,17.90
2022-09-24T07:55:10.672Z,18.10
2022-09-24T07:57:39.311Z,18.20
2022-09-24T08:00:10.496Z,18.50
2022-09-24T08:02:38.501Z,18.60
2022-09-24T08:05:07.369Z,18.80
2022-09-24T08:07:35.411Z,18.80
2022-09-24T08:10:03.324Z,18.80
2022-09-24T08:12:31.241Z,18.90
2022-09-24T08:14:59.135Z,18.90
2022-09-24T08:17:28.485Z,19.00
2022-09-24T08:19:57.067Z,19.20
2022-09-24T08:22:26.347Z,19.30
2022-09-24T08:24:54.888Z,19.40
2022-09-24T08:27:23.808Z,19.60
2022-09-24T08:29:51.725Z,19.50
2022-09-24T08:32:19.804Z,19.50
2022-09-24T08:34:49.054Z,19.90
2022-09-24T08:37:16.956Z,19.90
2022-09-24T08:39:44.897Z,19.80
2022-09-24T08:42:16.259Z,20.20
2022-09-24T08:45:03.994Z,20.40
2022-09-24T08:47:43.029Z,20.70
2022-09-24T08:50:17.456Z,20.80
2022-09-24T08:52:55.851Z,20.90
2022-09-24T08:55:30.069Z,20.80
2022-09-24T08:58:05.737Z,20.60
2022-09-24T09:00:40.855Z,20.50
2022-09-24T09:03:17.689Z,20.60
2022-09-24T09:05:54.190Z,20.70
2022-09-24T09:11:22.907Z,20.90
2022-09-24T09:13:57.600Z,20.90
2022-09-24T09:16:30.207Z,20.80
2022-09-24T09:19:06.140Z,21.00
2022-09-24T09:21:41.688Z,21.20
2022-09-24T09:24:17.352Z,21.30
2022-09-24T09:26:49.737Z,21.40
2022-09-24T09:29:18.324Z,21.60
2022-09-24T09:31:56.680Z,21.50
2022-09-24T09:34:41.424Z,21.50
2022-09-24T09:37:25.907Z,21.60
2022-09-24T09:40:00.590Z,21.80
2022-09-24T09:42:32.211Z,21.90
2022-09-24T09:45:03.325Z,22.10
2022-09-24T09:47:41.523Z,22.30
2022-09-24T09:50:26.941Z,22.30
2022-09-24T09:52:56.531Z,21.80
2022-09-24T09:55:27.129Z,21.50
2022-09-24T09:57:59.928Z,21.70
2022-09-24T10:00:34.476Z,21.70
2022-09-24T10:03:03.476Z,21.30
2022-09-24T10:05:31.854Z,21.30
2022-09-24T10:08:01.160Z,21.50
2022-09-24T10:10:30.342Z,21.70
2022-09-24T10:13:09.745Z,22.00
2022-09-24T10:15:49.443Z,22.00
2022-09-24T10:18:18.437Z,21.80
2022-09-24T10:20:49.592Z,21.60
2022-09-24T10:23:24.415Z,21.50
2022-09-24T10:25:54.034Z,21.30
2022-09-24T10:28:40.146Z,21.10
2022-09-24T10:31:19.047Z,21.20
2022-09-24T10:33:50.011Z,21.00
2022-09-24T10:36:22.182Z,20.80
2022-09-24T10:39:03.270Z,20.60
2022-09-24T10:41:32.770Z,20.40
2022-09-24T10:44:05.364Z,20.40
2022-09-24T10:47:04.598Z,20.20
2022-09-24T10:49:49.142Z,20.00
2022-09-24T10:52:30.111Z,20.40
2022-09-24T10:55:08.663Z,20.60
2022-09-24T10:57:47.816Z,20.90
2022-09-24T11:00:20.495Z,20.70
2022-09-24T11:03:42.793Z,20.50
2022-09-24T11:06:19.529Z,20.20
2022-09-24T11:09:05.284Z,20.10
2022-09-24T11:11:45.359Z,19.90
2022-09-24T11:14:24.877Z,19.80
2022-09-24T11:17:08.349Z,19.80
2022-09-24T11:19:57.455Z,19.70
2022-09-24T11:22:34.359Z,19.70
2022-09-24T11:25:19.497Z,19.80
2022-09-24T11:27:57.179Z,19.70
2022-09-24T11:30:30.504Z,19.80
2022-09-24T11:33:19.481Z,19.80
2022-09-24T11:36:05.502Z,19.90
2022-09-24T11:38:49.476Z,20.00
2022-09-24T11:41:27.941Z,20.30
2022-09-24T11:44:13.633Z,20.90
2022-09-24T11:46:55.196Z,21.40
2022-09-24T11:49:44.352Z,22.00
2022-09-24T11:52:15.836Z,22.10
2022-09-24T11:54:51.617Z,21.70
2022-09-24T11:57:24.620Z,21.30
2022-09-24T12:00:00.470Z,21.10
2022-09-24T12:02:34.078Z,20.90
2022-09-24T12:05:07.018Z,20.70
2022-09-24T12:07:41.234Z,20.60
2022-09-24T12:10:26.148Z,20.50
2022-09-24T12:12:58.870Z,20.60
2022-09-24T12:15:37.928Z,20.60
2022-09-24T12:18:12.408Z,20.90
2022-09-24T12:20:50.250Z,21.30
2022-09-24T12:23:23.866Z,21.60
2022-09-24T12:25:53.647Z,22.10
2022-09-24T12:28:40.630Z,22.40
2022-09-24T12:31:33.871Z,22.10
2022-09-24T12:34:07.318Z,22.20
2022-09-24T12:36:57.088Z,22.50
2022-09-24T12:39:29.118Z,22.90
2022-09-24T12:42:02.275Z,22.90
2022-09-24T12:44:38.212Z,23.10
2022-09-24T12:47:17.745Z,23.30
2022-09-24T12:49:51.460Z,22.90
2022-09-24T12:52:25.063Z,22.90
2022-09-24T12:54:59.639Z,22.90
2022-09-24T12:57:30.731Z,22.60
2022-09-24T13:00:00.694Z,22.30
2022-09-24T13:02:33.114Z,22.00
2022-09-24T13:05:19.872Z,21.80
2022-09-24T13:07:59.056Z,21.70
2022-09-24T13:10:29.830Z,21.80
2022-09-24T13:12:59.954Z,21.70
2022-09-24T13:15:33.862Z,22.20
2022-09-24T13:18:19.143Z,22.50
2022-09-24T13:21:01.032Z,22.70
2022-09-24T13:23:48.573Z,22.60
2022-09-24T13:26:29.467Z,22.50
2022-09-24T13:28:59.331Z,22.30
2022-09-24T13:31:34.197Z,22.00
2022-09-24T13:34:14.016Z,21.80
2022-09-24T13:36:45.509Z,22.10
2022-09-24T13:39:18.096Z,22.30
2022-09-24T13:41:54.490Z,22.50
2022-09-24T13:44:27.618Z,22.60
2022-09-24T13:47:01.123Z,22.70
2022-09-24T13:49:33.032Z,22.40
2022-09-24T13:52:13.014Z,22.10
2022-09-24T13:54:49.860Z,21.40
2022-09-24T13:57:25.375Z,21.10
2022-09-24T14:00:05.605Z,21.00
2022-09-24T14:02:37.570Z,20.70
2022-09-24T14:05:16.111Z,20.70
2022-09-24T14:07:44.069Z,20.40
2022-09-24T14:10:15.100Z,20.50
2022-09-24T14:12:43.025Z,20.30
2022-09-24T14:15:17.513Z,20.30
2022-09-24T14:17:57.165Z,20.20
2022-09-24T14:20:28.242Z,20.10
2022-09-24T14:22:56.330Z,20.10
2022-09-24T14:25:29.519Z,19.80
2022-09-24T14:28:00.323Z,19.70
2022-09-24T14:30:31.079Z,19.50
2022-09-24T14:33:00.972Z,19.40
2022-09-24T14:35:32.812Z,19.30
2022-09-24T14:38:06.341Z,19.10
2022-09-24T14:40:42.857Z,19.00
2022-09-24T14:43:19.396Z,19.00
2022-09-24T14:45:48.713Z,18.90
2022-09-24T14:48:26.167Z,18.90
2022-09-24T14:50:55.559Z,18.90
2022-09-24T14:53:26.928Z,18.90
2022-09-24T14:55:55.382Z,18.90
2022-09-24T14:58:33.567Z,18.80
2022-09-24T15:01:04.024Z,18.80
2022-09-24T15:03:39.795Z,18.80
2022-09-24T15:06:18.720Z,18.90
2022-09-24T15:08:54.249Z,19.00
2022-09-24T15:11:27.721Z,19.00
2022-09-24T15:14:12.679Z,19.00
2022-09-24T15:16:40.622Z,19.10
2022-09-24T15:19:17.392Z,19.10
2022-09-24T15:21:48.299Z,19.20
2022-09-24T15:24:16.499Z,19.30
2022-09-24T15:26:46.266Z,19.30
2022-09-24T15:29:21.040Z,19.30
2022-09-24T15:31:50.190Z,19.30
2022-09-24T15:34:20.122Z,19.20
2022-09-24T15:36:50.373Z,19.00
2022-09-24T15:39:19.668Z,18.90
2022-09-24T15:41:47.907Z,18.70
2022-09-24T15:44:21.814Z,18.60
2022-09-24T15:46:51.057Z,18.40
2022-09-24T15:49:21.904Z,18.30
2022-09-24T15:51:53.284Z,18.10
2022-09-24T15:54:21.675Z,17.90
2022-09-24T15:56:52.418Z,17.80
2022-09-24T15:59:21.385Z,17.60
2022-09-24T16:01:50.439Z,17.50
2022-09-24T16:04:18.418Z,17.30
2022-09-24T16:06:46.310Z,17.20
2022-09-24T16:09:15.549Z,17.10
2022-09-24T16:11:43.404Z,17.00
2022-09-24T16:14:11.864Z,16.90
2022-09-24T16:16:39.843Z,16.80
2022-09-24T16:19:08.568Z,16.70
2022-09-24T16:21:36.798Z,16.60
2022-09-24T16:24:04.913Z,16.60
2022-09-24T16:26:35.505Z,16.50
2022-09-24T16:29:04.255Z,16.40
2022-09-24T16:31:32.556Z,16.40
2022-09-24T16:34:00.739Z,16.20
2022-09-24T16:36:28.670Z,16.20
2022-09-24T16:38:58.097Z,16.10
2022-09-24T16:41:26.115Z,16.10
2022-09-24T16:43:58.695Z,16.00
2022-09-24T16:46:26.780Z,16.00
2022-09-24T16:48:54.799Z,15.90
2022-09-24T16:51:22.766Z,15.90
2022-09-24T16:53:55.535Z,15.80
2022-09-24T16:56:23.513Z,15.70
2022-09-24T16:58:52.469Z,15.70
2022-09-24T17:01:23.118Z,15.70
2022-09-24T17:03:55.182Z,15.70
2022-09-24T17:06:24.531Z,15.60
2022-09-24T17:09:10.026Z,15.60
2022-09-24T17:11:40.075Z,15.40
2022-09-24T17:14:08.750Z,15.40
2022-09-24T17:16:38.039Z,15.30
2022-09-24T17:19:08.046Z,15.30
2022-09-24T17:21:37.204Z,15.30
2022-09-24T17:24:05.408Z,15.20
2022-09-24T17:26:33.336Z,15.10
2022-09-24T17:29:01.253Z,15.10
2022-09-24T17:31:29.300Z,15.00
2022-09-24T17:33:59.642Z,14.90
2022-09-24T17:36:29.547Z,14.70
2022-09-24T17:38:59.312Z,14.70
2022-09-24T17:41:28.664Z,14.50
2022-09-24T17:43:58.626Z,14.40
2022-09-24T17:46:28.820Z,14.40
2022-09-24T17:48:59.752Z,14.40
2022-09-24T17:51:30.348Z,14.40
2022-09-24T17:53:58.366Z,14.40
2022-09-24T17:56:28.530Z,14.30
2022-09-24T17:58:56.989Z,14.30
2022-09-24T18:01:27.707Z,14.20
2022-09-24T18:03:56.618Z,14.10
2022-09-24T18:06:32.492Z,14.10
2022-09-24T18:09:01.398Z,14.00
2022-09-24T18:11:31.444Z,14.00
2022-09-24T18:14:02.209Z,13.90
2022-09-24T18:16:31.915Z,13.90
2022-09-24T18:19:01.280Z,13.90
2022-09-24T18:21:31.460Z,13.80
2022-09-24T18:24:00.953Z,13.80
2022-09-24T18:26:32.392Z,13.70
2022-09-24T18:29:03.778Z,13.70
2022-09-24T18:31:32.958Z,13.70
2022-09-24T18:34:04.035Z,13.60
2022-09-24T18:36:34.662Z,13.60
2022-09-24T18:39:03.026Z,13.60
2022-09-24T18:41:31.836Z,13.50
2022-09-24T18:44:00.499Z,13.40
2022-09-24T18:46:31.216Z,13.30
2022-09-24T18:49:00.502Z,13.20
2022-09-24T18:51:30.023Z,13.20
2022-09-24T18:54:00.875Z,13.10
2022-09-24T18:56:29.523Z,13.10
2022-09-24T18:58:58.549Z,13.00
2022-09-24T19:01:27.647Z,13.00
2022-09-24T19:03:56.144Z,12.90
2022-09-24T19:06:24.064Z,12.90
2022-09-24T19:08:51.947Z,12.80
2022-09-24T19:11:21.470Z,12.70
2022-09-24T19:13:50.964Z,12.70
2022-09-24T19:16:20.932Z,12.60
2022-09-24T19:18:49.171Z,12.60
2022-09-24T19:21:17.298Z,12.70
2022-09-24T19:23:46.924Z,12.60
2022-09-24T19:26:17.261Z,12.60
2022-09-24T19:28:47.222Z,12.60
2022-09-24T19:31:16.517Z,12.60
2022-09-24T19:33:45.092Z,12.60
2022-09-24T19:36:13.178Z,12.70
2022-09-24T19:38:41.969Z,12.70
2022-09-24T19:41:13.384Z,12.70
2022-09-24T19:43:42.782Z,12.70
2022-09-24T19:46:15.746Z,12.70
2022-09-24T19:48:45.827Z,12.80
2022-09-24T19:51:15.999Z,12.80
2022-09-24T19:53:44.367Z,12.70
2022-09-24T19:56:12.402Z,12.70
2022-09-24T19:58:40.273Z,12.70
2022-09-24T20:01:12.437Z,12.70
2022-09-24T20:03:45.782Z,12.70
2022-09-24T20:06:16.697Z,12.70
2022-09-24T20:08:44.660Z,12.80
2022-09-24T20:11:15.258Z,12.80
2022-09-24T20:13:45.991Z,12.80
2022-09-24T20:16:15.511Z,12.70
2022-09-24T20:18:45.006Z,12.60
2022-09-24T20:21:13.419Z,12.50
2022-09-24T20:23:41.692Z,12.70
2022-09-24T20:26:29.797Z,12.60
2022-09-24T20:28:57.779Z,12.60
2022-09-24T20:31:26.094Z,12.50
2022-09-24T20:33:55.434Z,12.50
2022-09-24T20:36:24.705Z,12.50
2022-09-24T20:38:53.954Z,12.40
2022-09-24T20:41:23.789Z,12.50
2022-09-24T20:43:55.141Z,12.50
2022-09-24T20:46:24.505Z,12.40
2022-09-24T20:48:52.765Z,12.40
2022-09-24T20:51:22.841Z,12.40
2022-09-24T20:53:51.317Z,12.40
2022-09-24T20:56:19.558Z,12.40
2022-09-24T20:58:50.689Z,12.40
2022-09-24T21:01:19.045Z,12.40
2022-09-24T21:03:49.306Z,12.50
2022-09-24T21:06:17.942Z,12.50
2022-09-24T21:08:48.129Z,12.50
2022-09-24T21:11:18.635Z,12.50
2022-09-24T21:13:49.011Z,12.60
2022-09-24T21:16:20.830Z,12.60
2022-09-24T21:18:50.057Z,12.60
2022-09-24T21:21:20.001Z,12.60
2022-09-24T21:23:50.799Z,12.60
2022-09-24T21:26:20.526Z,12.60
2022-09-24T21:28:50.276Z,12.60
2022-09-24T21:31:21.354Z,12.60
2022-09-24T21:33:52.542Z,12.60
2022-09-24T21:36:21.620Z,12.50
2022-09-24T21:38:55.313Z,12.60
2022-09-24T21:41:23.396Z,12.50
2022-09-24T21:43:53.455Z,12.50
2022-09-24T21:46:21.590Z,12.50
2022-09-24T21:48:51.290Z,12.50
2022-09-24T21:51:21.571Z,12.50
2022-09-24T21:53:50.141Z,12.50
2022-09-24T21:56:20.438Z,12.50
2022-09-24T21:58:48.522Z,12.40
2022-09-24T22:01:18.053Z,12.40
2022-09-24T22:03:46.741Z,12.40
2022-09-24T22:06:15.753Z,12.40
2022-09-24T22:08:45.423Z,12.30
2022-09-24T22:11:14.558Z,12.30
2022-09-24T22:13:45.018Z,12.40
2022-09-24T22:16:13.239Z,12.40
2022-09-24T22:18:41.361Z,12.40
2022-09-24T22:21:11.981Z,12.40
2022-09-24T22:23:40.746Z,12.50
2022-09-24T22:26:09.955Z,12.50
2022-09-24T22:28:38.514Z,12.50
2022-09-24T22:31:10.074Z,12.50
2022-09-24T22:33:52.465Z,12.30
2022-09-24T22:36:20.487Z,12.30
2022-09-24T22:38:49.338Z,12.30
2022-09-24T22:41:17.271Z,12.20
2022-09-24T22:43:45.980Z,12.20
2022-09-24T22:46:16.494Z,12.00
2022-09-24T22:48:44.724Z,12.00
2022-09-24T22:51:12.604Z,11.90
2022-09-24T22:53:42.428Z,12.00
2022-09-24T22:56:13.649Z,11.90
2022-09-24T22:58:43.325Z,11.90
2022-09-24T23:01:15.300Z,12.00
2022-09-24T23:03:45.395Z,11.90
2022-09-24T23:06:13.714Z,11.80
2022-09-24T23:08:42.692Z,11.90
2022-09-24T23:11:12.473Z,11.90
2022-09-24T23:13:42.294Z,11.90
2022-09-24T23:16:12.524Z,12.10
2022-09-24T23:18:41.944Z,12.00
2022-09-24T23:21:12.787Z,12.10
2022-09-24T23:23:41.239Z,12.00
2022-09-24T23:26:16.262Z,12.00
2022-09-24T23:28:45.899Z,12.00
2022-09-24T23:31:16.157Z,12.00
2022-09-24T23:33:44.637Z,12.00
2022-09-24T23:36:15.244Z,12.00
2022-09-24T23:38:43.668Z,12.00
2022-09-24T23:41:12.813Z,12.10
2022-09-24T23:43:41.085Z,12.10
2022-09-24T23:46:10.066Z,12.10
2022-09-24T23:48:38.640Z,12.10
2022-09-24T23:51:07.360Z,12.10
2022-09-24T23:53:37.328Z,12.00
2022-09-24T23:56:07.065Z,12.00
2022-09-24T23:58:35.475Z,11.80
